createdAt,value
2022-08-16T03:17:22.134Z,98053.41
2022-08-16T03:20:38.674Z,98043.97
2022-08-16T03:23:53.106Z,98051.06
2022-08-16T03:27:08.675Z,98060.59
2022-08-16T03:30:24.870Z,98050.91
2022-08-16T03:33:42.758Z,98068.03
2022-08-16T03:36:52.658Z,98057.66
2022-08-16T03:40:06.278Z,98066.03
2022-08-16T03:43:20.562Z,98069.56
2022-08-16T03:46:45.123Z,98062.84
2022-08-16T03:50:25.878Z,98055.91
2022-08-16T03:53:38.444Z,98060.75
2022-08-16T03:56:57.887Z,98062.25
2022-08-16T04:00:35.409Z,98070.94
2022-08-16T04:03:47.716Z,98075.22
2022-08-16T04:07:06.958Z,98076.81
2022-08-16T04:10:36.179Z,98072.25
2022-08-16T04:14:00.533Z,98070.25
2022-08-16T04:17:20.644Z,98076.13
2022-08-16T04:20:34.082Z,98077.72
2022-08-16T04:23:49.642Z,98067.84
2022-08-16T04:27:04.740Z,98076.47
2022-08-16T04:30:31.957Z,98069.63
2022-08-16T04:33:50.533Z,98068.75
2022-08-16T04:37:03.378Z,98078.09
2022-08-16T04:40:21.534Z,98079.13
2022-08-16T04:43:33.263Z,98076.47
2022-08-16T04:47:02.688Z,98086.84
2022-08-16T04:50:18.811Z,98074.94
2022-08-16T04:53:49.603Z,98097.56
2022-08-16T04:57:03.569Z,98104.50
2022-08-16T05:00:30.867Z,98099.22
2022-08-16T06:01:05.867Z,98130.50
2022-08-16T06:04:35.403Z,98129.88
2022-08-16T06:07:58.577Z,98131.19
2022-08-16T06:11:14.966Z,98124.00
2022-08-16T06:14:31.080Z,98124.41
2022-08-16T06:17:51.715Z,98120.44
2022-08-16T06:21:05.338Z,98125.09
2022-08-16T06:24:55.164Z,98127.22
2022-08-16T06:27:57.497Z,98133.03
2022-08-16T06:31:13.027Z,98137.91
2022-08-16T06:34:55.494Z,98144.75
2022-08-16T06:38:01.027Z,98138.25
2022-08-16T06:41:14.020Z,98140.44
2022-08-16T06:44:27.032Z,98134.06
2022-08-16T06:47:53.790Z,98122.47
2022-08-16T06:51:11.822Z,98125.59
2022-08-16T06:54:24.918Z,98119.94
2022-08-16T06:57:39.787Z,98120.41
2022-08-16T07:00:50.577Z,98123.72
2022-08-16T07:04:01.980Z,98131.78
2022-08-16T07:07:21.387Z,98127.88
2022-08-16T07:10:32.887Z,98121.28
2022-08-16T07:14:00.556Z,98119.97
2022-08-16T07:17:21.549Z,98108.59
2022-08-16T07:20:47.708Z,98115.41
2022-08-16T07:24:30.344Z,98124.41
2022-08-16T07:27:49.426Z,98123.59
2022-08-16T07:31:13.181Z,98125.56
2022-08-16T07:34:35.428Z,98124.19
2022-08-16T07:37:46.820Z,98125.13
2022-08-16T07:41:09.815Z,98130.47
2022-08-16T07:44:22.846Z,98126.44
2022-08-16T07:47:37.534Z,98122.41
2022-08-16T07:50:55.741Z,98119.28
2022-08-16T07:54:12.649Z,98120.44
2022-08-16T07:57:57.958Z,98121.81
2022-08-16T08:01:15.208Z,98120.50
2022-08-16T08:04:37.116Z,98118.91
2022-08-16T08:07:47.848Z,98117.31
2022-08-16T08:11:09.087Z,98124.50
2022-08-16T08:14:29.488Z,98120.31
2022-08-16T08:17:42.637Z,98117.78
2022-08-16T08:20:59.321Z,98130.63
2022-08-16T08:24:15.155Z,98139.19
2022-08-16T08:27:25.862Z,98140.63
2022-08-16T08:30:51.739Z,98143.00
2022-08-16T08:34:12.819Z,98148.00
2022-08-16T08:37:23.394Z,98147.78
2022-08-16T08:40:39.839Z,98147.50
2022-08-16T08:43:54.560Z,98146.09
2022-08-16T08:47:11.089Z,98151.25
2022-08-16T08:50:32.180Z,98145.91
2022-08-16T08:53:43.600Z,98134.56
2022-08-16T08:56:53.892Z,98134.47
2022-08-16T09:00:27.001Z,98140.06
2022-08-16T09:03:43.570Z,98126.72
2022-08-16T09:06:54.183Z,98125.47
2022-08-16T09:10:20.455Z,98127.06
2022-08-16T09:13:33.193Z,98129.94
2022-08-16T09:17:01.494Z,98133.75
2022-08-16T09:20:16.814Z,98140.31
2022-08-16T09:23:27.617Z,98143.63
2022-08-16T09:26:45.984Z,98138.91
2022-08-16T09:30:00.009Z,98140.25
2022-08-16T09:33:11.321Z,98143.31
2022-08-16T09:36:31.855Z,98138.13
2022-08-16T09:39:44.908Z,98146.47
2022-08-16T09:42:59.031Z,98145.44
2022-08-16T09:46:49.182Z,98147.56
2022-08-16T09:49:41.122Z,98139.88
2022-08-16T09:52:52.367Z,98141.75
2022-08-16T09:56:11.526Z,98142.66
2022-08-16T09:59:23.413Z,98146.19
2022-08-16T10:02:44.394Z,98144.47
2022-08-16T10:05:58.634Z,98146.19
2022-08-16T10:09:15.769Z,98144.44
2022-08-16T10:12:42.142Z,98139.09
2022-08-16T10:15:59.999Z,98135.47
2022-08-16T10:19:09.870Z,98140.69
2022-08-16T10:22:23.194Z,98130.78
2022-08-16T10:27:17.253Z,98121.53
2022-08-16T10:29:10.730Z,98127.41
2022-08-16T10:32:21.236Z,98120.56
2022-08-16T10:35:33.080Z,98128.38
2022-08-16T10:38:43.621Z,98132.50
2022-08-16T10:41:55.832Z,98133.88
2022-08-16T10:45:08.583Z,98126.28
2022-08-16T10:48:24.034Z,98126.59
2022-08-16T10:52:01.566Z,98124.34
2022-08-16T10:58:48.364Z,98133.41
2022-08-16T11:12:34.027Z,98128.38
2022-08-16T11:15:54.390Z,98139.00
2022-08-16T11:19:12.200Z,98137.34
2022-08-16T11:22:42.149Z,98134.75
2022-08-16T11:26:06.581Z,98139.16
2022-08-16T11:29:26.803Z,98137.41
2022-08-16T11:32:38.643Z,98137.41
2022-08-16T11:39:20.296Z,98153.22
2022-08-16T11:42:34.351Z,98142.69
2022-08-16T11:45:54.162Z,98138.06
2022-08-16T11:49:11.265Z,98138.59
2022-08-16T11:52:24.830Z,98140.22
2022-08-16T11:55:38.769Z,98140.38
2022-08-16T11:58:51.726Z,98130.84
2022-08-16T12:02:32.395Z,98138.03
2022-08-16T12:05:46.988Z,98136.38
2022-08-16T12:09:02.380Z,98138.13
2022-08-16T12:12:15.783Z,98139.94
2022-08-16T12:15:31.205Z,98129.34
2022-08-16T12:22:19.130Z,98131.81
2022-08-16T12:25:31.659Z,98136.09
2022-08-16T12:28:54.524Z,98126.97
2022-08-16T12:32:38.067Z,98123.78
2022-08-16T12:35:39.415Z,98128.84
2022-08-16T12:38:55.055Z,98126.00
2022-08-16T12:42:05.016Z,98124.31
2022-08-16T12:45:20.639Z,98118.25
2022-08-16T12:48:43.723Z,98123.78
2022-08-16T12:52:01.275Z,98123.22
2022-08-16T12:55:14.343Z,98129.59
2022-08-16T12:58:49.577Z,98119.91
2022-08-16T13:02:08.046Z,98122.75
2022-08-16T13:05:23.860Z,98123.78
2022-08-16T13:08:34.928Z,98116.81
2022-08-16T13:11:59.801Z,98107.13
2022-08-16T13:15:14.611Z,98107.91
2022-08-16T13:18:34.658Z,98114.00
2022-08-16T13:21:45.605Z,98114.03
2022-08-16T13:25:00.108Z,98116.63
2022-08-16T13:28:14.977Z,98115.69
2022-08-16T13:31:27.045Z,98113.94
2022-08-16T13:34:37.046Z,98107.88
2022-08-16T13:37:48.028Z,98114.94
2022-08-16T13:40:58.590Z,98102.94
2022-08-16T13:44:13.179Z,98105.66
2022-08-16T13:47:25.569Z,98100.00
2022-08-16T13:50:51.322Z,98084.97
2022-08-16T13:54:04.431Z,98089.25
2022-08-16T13:57:15.504Z,98082.56
2022-08-16T14:00:27.131Z,98090.69
2022-08-16T14:03:37.392Z,98090.31
2022-08-16T14:06:47.271Z,98085.69
2022-08-16T14:09:57.264Z,98089.47
2022-08-16T14:13:19.779Z,98084.88
2022-08-16T14:16:33.918Z,98087.94
2022-08-16T14:19:46.182Z,98084.06
2022-08-16T14:22:56.865Z,98078.75
2022-08-16T14:26:10.219Z,98072.16
2022-08-16T14:29:21.343Z,98076.13
2022-08-16T14:32:35.584Z,98077.16
2022-08-16T14:35:50.410Z,98075.66
2022-08-16T14:39:01.680Z,98073.47
2022-08-16T14:42:14.486Z,98069.78
2022-08-16T14:45:32.500Z,98066.69
2022-08-16T14:48:49.200Z,98074.81
2022-08-16T14:52:01.899Z,98072.50
2022-08-16T14:55:13.113Z,98077.69
2022-08-16T14:58:34.662Z,98067.47
2022-08-16T15:01:57.821Z,98063.72
2022-08-16T15:05:13.129Z,98073.19
2022-08-16T15:08:36.410Z,98075.97
2022-08-16T15:11:47.312Z,98068.47
2022-08-16T15:14:59.749Z,98077.09
2022-08-16T15:18:12.126Z,98059.91
2022-08-16T15:21:25.865Z,98064.94
2022-08-16T15:24:39.655Z,98053.13
2022-08-16T15:27:55.439Z,98052.38
2022-08-16T15:31:09.248Z,98059.09
2022-08-16T15:34:26.136Z,98053.56
2022-08-16T15:37:42.531Z,98057.09
2022-08-16T15:40:58.801Z,98057.72
2022-08-16T15:44:11.775Z,98064.78
2022-08-16T15:47:25.724Z,98059.56
2022-08-16T15:50:37.513Z,98068.44
2022-08-16T15:54:12.136Z,98068.59
2022-08-16T15:57:23.949Z,98062.16
2022-08-16T16:00:34.027Z,98067.59
2022-08-16T16:03:44.074Z,98067.59
2022-08-16T16:07:00.440Z,98064.75
2022-08-16T16:10:13.325Z,98066.59
2022-08-16T16:13:27.032Z,98073.09
2022-08-16T16:16:43.852Z,98071.78
2022-08-16T16:20:03.136Z,98063.47
2022-08-16T16:23:13.395Z,98067.47
2022-08-16T16:26:24.903Z,98057.84
2022-08-16T16:29:40.295Z,98065.13
2022-08-16T16:32:50.601Z,98065.00
2022-08-16T16:36:03.247Z,98060.84
2022-08-16T16:39:18.013Z,98054.94
2022-08-16T16:42:40.433Z,98049.13
2022-08-16T16:45:54.285Z,98051.34
2022-08-16T16:49:08.530Z,98050.06
2022-08-16T16:52:43.542Z,98051.19
2022-08-16T16:55:53.725Z,98047.13
2022-08-16T16:59:08.189Z,98052.13
2022-08-16T17:02:41.487Z,98044.50
2022-08-16T17:06:00.110Z,98051.72
2022-08-16T17:09:13.444Z,98050.22
2022-08-16T17:12:25.421Z,98052.34
2022-08-16T17:15:55.361Z,98054.50
2022-08-16T17:19:16.362Z,98053.88
2022-08-16T17:22:41.271Z,98050.75
2022-08-16T17:25:54.096Z,98044.91
2022-08-16T17:32:47.041Z,98047.19
2022-08-16T17:35:59.017Z,98054.03
2022-08-16T17:39:09.768Z,98055.66
2022-08-16T17:39:28.574Z,98044.50
2022-08-16T17:42:25.343Z,98062.41
2022-08-16T17:45:37.886Z,98060.19
2022-08-16T17:48:50.281Z,98064.31
2022-08-16T17:52:00.432Z,98064.78
2022-08-16T17:55:12.944Z,98067.78
2022-08-16T17:58:24.641Z,98075.16
2022-08-16T18:01:34.921Z,98071.00
2022-08-16T18:04:50.307Z,98072.13
2022-08-16T18:08:00.382Z,98068.75
2022-08-16T18:11:15.078Z,98072.31
2022-08-16T18:14:51.324Z,98081.19
2022-08-16T18:18:02.453Z,98078.56
2022-08-16T18:21:27.556Z,98082.97
2022-08-16T18:24:37.873Z,98086.47
2022-08-16T18:27:47.961Z,98086.44
2022-08-16T18:31:01.086Z,98089.03
2022-08-16T18:34:14.106Z,98088.00
2022-08-16T18:37:25.730Z,98079.16
2022-08-16T18:40:36.311Z,98085.19
2022-08-16T18:44:22.422Z,98082.44
2022-08-16T18:47:19.176Z,98096.38
2022-08-16T18:51:03.502Z,98092.84
2022-08-16T18:54:14.281Z,98098.03
2022-08-16T18:57:26.577Z,98094.44
2022-08-16T19:00:56.717Z,98102.13
2022-08-16T19:04:54.963Z,98103.63
2022-08-16T19:07:38.467Z,98106.09
2022-08-16T19:10:53.782Z,98109.53
2022-08-16T19:14:03.770Z,98113.78
2022-08-16T19:17:13.969Z,98117.97
2022-08-16T19:20:27.279Z,98123.03
2022-08-16T19:23:38.780Z,98126.38
2022-08-16T19:26:52.836Z,98124.53
2022-08-16T19:30:03.465Z,98140.81
2022-08-16T19:33:13.473Z,98142.22
2022-08-16T19:36:35.953Z,98145.38
2022-08-16T19:39:48.914Z,98146.91
2022-08-16T19:43:09.878Z,98154.59
2022-08-16T19:46:20.274Z,98169.25
2022-08-16T19:49:32.011Z,98158.69
2022-08-16T19:52:44.013Z,98164.63
2022-08-16T19:55:56.175Z,98168.63
2022-08-16T19:59:40.065Z,98184.97
2022-08-16T20:02:46.880Z,98182.91
2022-08-16T20:05:59.703Z,98185.38
2022-08-16T20:09:15.616Z,98194.81
2022-08-16T20:12:27.452Z,98198.09
2022-08-16T20:15:42.115Z,98196.09
